sensor_id;sensor_type;location;lat;lon;timestamp;temperature;humidity
39095;DHT22;24840;47.508;19.376;2023-03-01T00:01:15;3.50;99.90
39095;DHT22;24840;47.508;19.376;2023-03-01T00:03:41;3.60;99.90
39095;DHT22;24840;47.508;19.376;2023-03-01T00:06:07;3.60;99.90
39095;DHT22;24840;47.508;19.376;2023-03-01T00:08:33;3.50;99.90
39095;DHT22;24840;47.508;19.376;2023-03-01T00:11:02;3.60;99.90
39095;DHT22;24840;47.508;19.376;2023-03-01T00:13:29;3.60;99.90
39095;DHT22;24840;47.508;19.376;2023-03-01T00:15:54;3.60;99.90
39095;DHT22;24840;47.508;19.376;2023-03-01T00:18:20;3.60;99.90
39095;DHT22;24840;47.508;19.376;2023-03-01T00:20:54;3.50;99.90
39095;DHT22;24840;47.508;19.376;2023-03-01T00:23:21;3.50;99.90
39095;DHT22;24840;47.508;19.376;2023-03-01T00:25:48;3.50;99.90
39095;DHT22;24840;47.508;19.376;2023-03-01T00:28:14;3.60;99.90
39095;DHT22;24840;47.508;19.376;2023-03-01T00:30:40;3.50;99.90
39095;DHT22;24840;47.508;19.376;2023-03-01T00:33:05;3.50;99.90
39095;DHT22;24840;47.508;19.376;2023-03-01T00:35:34;3.50;99.90
39095;DHT22;24840;47.508;19.376;2023-03-01T00:38:00;3.50;99.90
39095;DHT22;24840;47.508;19.376;2023-03-01T00:40:27;3.50;99.90
39095;DHT22;24840;47.508;19.376;2023-03-01T00:42:54;3.50;99.90
39095;DHT22;24840;47.508;19.376;2023-03-01T00:45:20;3.50;99.90
39095;DHT22;24840;47.508;19.376;2023-03-01T00:47:47;3.40;99.90
39095;DHT22;24840;47.508;19.376;2023-03-01T00:50:13;3.50;99.90
39095;DHT22;24840;47.508;19.376;2023-03-01T00:52:39;3.50;99.90
39095;DHT22;24840;47.508;19.376;2023-03-01T00:55:05;3.50;99.90
39095;DHT22;24840;47.508;19.376;2023-03-01T00:57:34;3.50;99.90
39095;DHT22;24840;47.508;19.376;2023-03-01T01:00:00;3.50;99.90
39095;DHT22;24840;47.508;19.376;2023-03-01T01:02:26;3.50;99.90
39095;DHT22;24840;47.508;19.376;2023-03-01T01:04:52;3.50;99.90
39095;DHT22;24840;47.508;19.376;2023-03-01T01:07:18;3.60;99.90
39095;DHT22;24840;47.508;19.376;2023-03-01T01:09:45;3.50;99.90
39095;DHT22;24840;47.508;19.376;2023-03-01T01:12:11;3.60;99.90
39095;DHT22;24840;47.508;19.376;2023-03-01T01:14:38;3.60;99.90
39095;DHT22;24840;47.508;19.376;2023-03-01T01:17:04;3.60;99.90
39095;DHT22;24840;47.508;19.376;2023-03-01T01:19:30;3.50;99.90
39095;DHT22;24840;47.508;19.376;2023-03-01T01:21:56;3.40;99.90
39095;DHT22;24840;47.508;19.376;2023-03-01T01:24:22;3.40;99.90
39095;DHT22;24840;47.508;19.376;2023-03-01T01:26:48;3.50;99.90
39095;DHT22;24840;47.508;19.376;2023-03-01T01:29:14;3.60;99.90
39095;DHT22;24840;47.508;19.376;2023-03-01T01:31:42;3.50;99.90
39095;DHT22;24840;47.508;19.376;2023-03-01T01:34:12;3.50;99.90
39095;DHT22;24840;47.508;19.376;2023-03-01T01:36:38;3.40;99.90
39095;DHT22;24840;47.508;19.376;2023-03-01T01:39:04;3.50;99.90
39095;DHT22;24840;47.508;19.376;2023-03-01T01:41:30;3.40;99.90
39095;DHT22;24840;47.508;19.376;2023-03-01T01:44:21;3.50;99.90
39095;DHT22;24840;47.508;19.376;2023-03-01T01:49:42;3.40;99.90
39095;DHT22;24840;47.508;19.376;2023-03-01T01:57:26;3.50;99.90
39095;DHT22;24840;47.508;19.376;2023-03-01T01:59:56;3.50;99.90
39095;DHT22;24840;47.508;19.376;2023-03-01T02:02:24;3.50;99.90
39095;DHT22;24840;47.508;19.376;2023-03-01T02:04:54;3.50;99.90
39095;DHT22;24840;47.508;19.376;2023-03-01T02:07:24;3.50;99.90
39095;DHT22;24840;47.508;19.376;2023-03-01T02:09:52;3.50;99.90
39095;DHT22;24840;47.508;19.376;2023-03-01T02:12:21;3.50;99.90
39095;DHT22;24840;47.508;19.376;2023-03-01T02:14:48;3.50;99.90
39095;DHT22;24840;47.508;19.376;2023-03-01T02:17:16;3.50;99.90
39095;DHT22;24840;47.508;19.376;2023-03-01T02:20:16;3.50;99.90
39095;DHT22;24840;47.508;19.376;2023-03-01T02:22:38;3.50;99.90
39095;DHT22;24840;47.508;19.376;2023-03-01T02:30:46;3.50;99.90
39095;DHT22;24840;47.508;19.376;2023-03-01T02:33:33;3.50;99.90
39095;DHT22;24840;47.508;19.376;2023-03-01T02:36:05;3.50;99.90
39095;DHT22;24840;47.508;19.376;2023-03-01T02:38:32;3.50;99.90
39095;DHT22;24840;47.508;19.376;2023-03-01T02:40:58;3.50;99.90
39095;DHT22;24840;47.508;19.376;2023-03-01T02:43:29;3.40;99.90
39095;DHT22;24840;47.508;19.376;2023-03-01T02:45:58;3.50;99.90
39095;DHT22;24840;47.508;19.376;2023-03-01T02:48:24;3.40;99.90
39095;DHT22;24840;47.508;19.376;2023-03-01T02:51:09;3.40;99.90
39095;DHT22;24840;47.508;19.376;2023-03-01T02:53:58;3.40;99.90
39095;DHT22;24840;47.508;19.376;2023-03-01T02:56:26;3.40;99.90
39095;DHT22;24840;47.508;19.376;2023-03-01T02:58:52;3.50;99.90
39095;DHT22;24840;47.508;19.376;2023-03-01T03:01:20;3.50;99.90
39095;DHT22;24840;47.508;19.376;2023-03-01T03:03:46;3.50;99.90
39095;DHT22;24840;47.508;19.376;2023-03-01T03:06:12;3.60;99.90
39095;DHT22;24840;47.508;19.376;2023-03-01T03:08:38;3.50;99.90
39095;DHT22;24840;47.508;19.376;2023-03-01T03:11:04;3.40;99.90
39095;DHT22;24840;47.508;19.376;2023-03-01T03:13:30;3.30;99.90
39095;DHT22;24840;47.508;19.376;2023-03-01T03:15:56;3.30;99.90
39095;DHT22;24840;47.508;19.376;2023-03-01T03:18:24;3.40;99.90
39095;DHT22;24840;47.508;19.376;2023-03-01T03:20:53;3.40;99.90
39095;DHT22;24840;47.508;19.376;2023-03-01T03:23:20;3.40;99.90
39095;DHT22;24840;47.508;19.376;2023-03-01T03:25:49;3.40;99.90
39095;DHT22;24840;47.508;19.376;2023-03-01T03:28:15;3.50;99.90
39095;DHT22;24840;47.508;19.376;2023-03-01T03:30:42;3.50;99.90
39095;DHT22;24840;47.508;19.376;2023-03-01T03:33:10;3.50;99.90
39095;DHT22;24840;47.508;19.376;2023-03-01T03:35:42;3.40;99.90
39095;DHT22;24840;47.508;19.376;2023-03-01T03:38:11;3.40;99.90
39095;DHT22;24840;47.508;19.376;2023-03-01T03:40:46;3.40;99.90
39095;DHT22;24840;47.508;19.376;2023-03-01T03:43:18;3.40;99.90
39095;DHT22;24840;47.508;19.376;2023-03-01T03:45:45;3.50;99.90
39095;DHT22;24840;47.508;19.376;2023-03-01T03:48:11;3.40;99.90
39095;DHT22;24840;47.508;19.376;2023-03-01T03:50:38;3.50;99.90
39095;DHT22;24840;47.508;19.376;2023-03-01T03:53:10;3.50;99.90
39095;DHT22;24840;47.508;19.376;2023-03-01T03:55:36;3.50;99.90
39095;DHT22;24840;47.508;19.376;2023-03-01T03:58:06;3.50;99.90
39095;DHT22;24840;47.508;19.376;2023-03-01T04:00:34;3.50;99.90
39095;DHT22;24840;47.508;19.376;2023-03-01T04:03:01;3.50;99.90
39095;DHT22;24840;47.508;19.376;2023-03-01T04:05:27;3.50;99.90
39095;DHT22;24840;47.508;19.376;2023-03-01T04:07:53;3.50;99.90
39095;DHT22;24840;47.508;19.376;2023-03-01T04:10:28;3.50;99.90
39095;DHT22;24840;47.508;19.376;2023-03-01T04:12:54;3.40;99.90
39095;DHT22;24840;47.508;19.376;2023-03-01T04:15:22;3.50;99.90
39095;DHT22;24840;47.508;19.376;2023-03-01T04:17:50;3.40;99.90
39095;DHT22;24840;47.508;19.376;2023-03-01T04:20:23;3.40;99.90
39095;DHT22;24840;47.508;19.376;2023-03-01T04:23:07;3.40;99.90
39095;DHT22;24840;47.508;19.376;2023-03-01T04:28:31;3.50;99.90
39095;DHT22;24840;47.508;19.376;2023-03-01T04:31:03;3.50;99.90
39095;DHT22;24840;47.508;19.376;2023-03-01T04:33:48;3.50;99.90
39095;DHT22;24840;47.508;19.376;2023-03-01T04:36:15;3.50;99.90
39095;DHT22;24840;47.508;19.376;2023-03-01T04:38:42;3.50;99.90
39095;DHT22;24840;47.508;19.376;2023-03-01T04:41:13;3.50;99.90
39095;DHT22;24840;47.508;19.376;2023-03-01T04:43:39;3.50;99.90
39095;DHT22;24840;47.508;19.376;2023-03-01T04:46:07;3.60;99.90
39095;DHT22;24840;47.508;19.376;2023-03-01T04:48:39;3.60;99.90
39095;DHT22;24840;47.508;19.376;2023-03-01T04:51:06;3.60;99.90
39095;DHT22;24840;47.508;19.376;2023-03-01T04:53:33;3.60;99.90
39095;DHT22;24840;47.508;19.376;2023-03-01T04:56:02;3.60;99.90
39095;DHT22;24840;47.508;19.376;2023-03-01T04:58:28;3.50;99.90
39095;DHT22;24840;47.508;19.376;2023-03-01T05:00:54;3.50;99.90
39095;DHT22;24840;47.508;19.376;2023-03-01T05:03:21;3.50;99.90
39095;DHT22;24840;47.508;19.376;2023-03-01T05:05:49;3.60;99.90
39095;DHT22;24840;47.508;19.376;2023-03-01T05:08:15;3.60;99.90
39095;DHT22;24840;47.508;19.376;2023-03-01T05:10:51;3.60;99.90
39095;DHT22;24840;47.508;19.376;2023-03-01T05:13:18;3.50;99.90
39095;DHT22;24840;47.508;19.376;2023-03-01T05:15:49;3.50;99.90
39095;DHT22;24840;47.508;19.376;2023-03-01T05:18:18;3.50;99.90
39095;DHT22;24840;47.508;19.376;2023-03-01T05:20:44;3.50;99.90
39095;DHT22;24840;47.508;19.376;2023-03-01T05:23:10;3.50;99.90
39095;DHT22;24840;47.508;19.376;2023-03-01T05:25:36;3.50;99.90
39095;DHT22;24840;47.508;19.376;2023-03-01T05:28:09;3.50;99.90
39095;DHT22;24840;47.508;19.376;2023-03-01T05:30:36;3.50;99.90
39095;DHT22;24840;47.508;19.376;2023-03-01T05:33:02;3.50;99.90
39095;DHT22;24840;47.508;19.376;2023-03-01T05:35:28;3.50;99.90
39095;DHT22;24840;47.508;19.376;2023-03-01T05:37:55;3.50;99.90
39095;DHT22;24840;47.508;19.376;2023-03-01T05:40:22;3.50;99.90
39095;DHT22;24840;47.508;19.376;2023-03-01T05:42:54;3.60;99.90
39095;DHT22;24840;47.508;19.376;2023-03-01T05:45:21;3.60;99.90
39095;DHT22;24840;47.508;19.376;2023-03-01T05:47:48;3.60;99.90
39095;DHT22;24840;47.508;19.376;2023-03-01T05:50:28;3.60;99.90
39095;DHT22;24840;47.508;19.376;2023-03-01T05:52:59;3.60;99.90
39095;DHT22;24840;47.508;19.376;2023-03-01T05:55:26;3.60;99.90
39095;DHT22;24840;47.508;19.376;2023-03-01T05:57:52;3.60;99.90
39095;DHT22;24840;47.508;19.376;2023-03-01T06:00:19;3.60;99.90
39095;DHT22;24840;47.508;19.376;2023-03-01T06:02:48;3.60;99.90
39095;DHT22;24840;47.508;19.376;2023-03-01T06:05:14;3.50;99.90
39095;DHT22;24840;47.508;19.376;2023-03-01T06:07:41;3.60;99.90
39095;DHT22;24840;47.508;19.376;2023-03-01T06:10:08;3.70;99.90
39095;DHT22;24840;47.508;19.376;2023-03-01T06:12:36;3.70;99.90
39095;DHT22;24840;47.508;19.376;2023-03-01T06:15:02;3.80;99.90
39095;DHT22;24840;47.508;19.376;2023-03-01T06:17:31;3.80;99.90
39095;DHT22;24840;47.508;19.376;2023-03-01T06:19:57;3.90;99.90
39095;DHT22;24840;47.508;19.376;2023-03-01T06:22:23;3.90;99.90
39095;DHT22;24840;47.508;19.376;2023-03-01T06:24:49;3.90;99.90
39095;DHT22;24840;47.508;19.376;2023-03-01T06:27:15;3.90;99.90
39095;DHT22;24840;47.508;19.376;2023-03-01T06:29:41;3.90;99.90
39095;DHT22;24840;47.508;19.376;2023-03-01T06:32:07;3.90;99.90
39095;DHT22;24840;47.508;19.376;2023-03-01T06:34:33;4.00;99.90
39095;DHT22;24840;47.508;19.376;2023-03-01T06:36:59;4.10;99.90
39095;DHT22;24840;47.508;19.376;2023-03-01T06:39:27;4.20;99.90
39095;DHT22;24840;47.508;19.376;2023-03-01T06:41:53;4.10;99.90
39095;DHT22;24840;47.508;19.376;2023-03-01T06:44:19;4.20;99.90
39095;DHT22;24840;47.508;19.376;2023-03-01T06:46:44;4.30;99.90
39095;DHT22;24840;47.508;19.376;2023-03-01T06:49:10;4.30;99.90
39095;DHT22;24840;47.508;19.376;2023-03-01T06:51:36;4.30;99.90
39095;DHT22;24840;47.508;19.376;2023-03-01T06:54:03;4.40;99.90
39095;DHT22;24840;47.508;19.376;2023-03-01T06:56:30;4.50;99.90
39095;DHT22;24840;47.508;19.376;2023-03-01T06:58:55;4.60;99.90
39095;DHT22;24840;47.508;19.376;2023-03-01T07:01:21;4.70;99.90
39095;DHT22;24840;47.508;19.376;2023-03-01T07:03:47;4.70;99.90
39095;DHT22;24840;47.508;19.376;2023-03-01T07:06:13;4.80;99.90
39095;DHT22;24840;47.508;19.376;2023-03-01T07:08:38;4.90;99.90
39095;DHT22;24840;47.508;19.376;2023-03-01T07:11:04;5.10;99.90
39095;DHT22;24840;47.508;19.376;2023-03-01T07:13:31;5.20;99.90
39095;DHT22;24840;47.508;19.376;2023-03-01T07:15:57;5.20;99.90
39095;DHT22;24840;47.508;19.376;2023-03-01T07:18:23;5.40;99.90
39095;DHT22;24840;47.508;19.376;2023-03-01T07:20:48;5.40;99.90
39095;DHT22;24840;47.508;19.376;2023-03-01T07:23:14;5.50;99.90
39095;DHT22;24840;47.508;19.376;2023-03-01T07:25:41;5.60;99.90
39095;DHT22;24840;47.508;19.376;2023-03-01T07:28:07;5.60;99.70
39095;DHT22;24840;47.508;19.376;2023-03-01T07:30:32;5.70;99.90
39095;DHT22;24840;47.508;19.376;2023-03-01T07:32:58;5.80;99.90
39095;DHT22;24840;47.508;19.376;2023-03-01T07:35:27;5.90;99.30
39095;DHT22;24840;47.508;19.376;2023-03-01T07:37:53;6.00;99.10
39095;DHT22;24840;47.508;19.376;2023-03-01T07:40:19;6.00;98.60
39095;DHT22;24840;47.508;19.376;2023-03-01T07:42:45;6.10;98.60
39095;DHT22;24840;47.508;19.376;2023-03-01T07:45:11;6.00;97.90
39095;DHT22;24840;47.508;19.376;2023-03-01T07:47:39;6.00;97.50
39095;DHT22;24840;47.508;19.376;2023-03-01T07:50:05;6.30;98.70
39095;DHT22;24840;47.508;19.376;2023-03-01T07:52:31;6.40;97.80
39095;DHT22;24840;47.508;19.376;2023-03-01T07:54:57;6.50;97.70
39095;DHT22;24840;47.508;19.376;2023-03-01T07:57:23;6.50;96.30
39095;DHT22;24840;47.508;19.376;2023-03-01T07:59:49;6.50;96.10
39095;DHT22;24840;47.508;19.376;2023-03-01T08:02:14;6.50;96.80
39095;DHT22;24840;47.508;19.376;2023-03-01T08:04:41;6.90;96.10
39095;DHT22;24840;47.508;19.376;2023-03-01T08:07:07;7.10;95.00
39095;DHT22;24840;47.508;19.376;2023-03-01T08:09:35;7.20;95.50
39095;DHT22;24840;47.508;19.376;2023-03-01T08:12:02;7.40;95.50
39095;DHT22;24840;47.508;19.376;2023-03-01T08:14:28;7.70;95.20
39095;DHT22;24840;47.508;19.376;2023-03-01T08:16:54;7.80;95.00
39095;DHT22;24840;47.508;19.376;2023-03-01T08:19:20;7.80;94.40
39095;DHT22;24840;47.508;19.376;2023-03-01T08:21:46;7.80;93.90
39095;DHT22;24840;47.508;19.376;2023-03-01T08:24:12;8.00;93.70
39095;DHT22;24840;47.508;19.376;2023-03-01T08:26:37;8.10;93.10
39095;DHT22;24840;47.508;19.376;2023-03-01T08:29:03;8.00;93.20
39095;DHT22;24840;47.508;19.376;2023-03-01T08:31:35;8.00;92.10
39095;DHT22;24840;47.508;19.376;2023-03-01T08:34:04;7.90;91.90
39095;DHT22;24840;47.508;19.376;2023-03-01T08:36:32;8.20;91.80
39095;DHT22;24840;47.508;19.376;2023-03-01T08:38:58;8.40;91.50
39095;DHT22;24840;47.508;19.376;2023-03-01T08:41:24;8.70;91.00
39095;DHT22;24840;47.508;19.376;2023-03-01T08:43:50;8.70;91.60
39095;DHT22;24840;47.508;19.376;2023-03-01T08:46:17;8.80;91.20
39095;DHT22;24840;47.508;19.376;2023-03-01T08:48:43;9.10;91.30
39095;DHT22;24840;47.508;19.376;2023-03-01T08:51:14;9.10;90.40
39095;DHT22;24840;47.508;19.376;2023-03-01T08:53:41;9.60;90.70
39095;DHT22;24840;47.508;19.376;2023-03-01T08:56:07;10.40;90.00
39095;DHT22;24840;47.508;19.376;2023-03-01T08:58:33;9.50;87.50
39095;DHT22;24840;47.508;19.376;2023-03-01T09:01:00;9.80;87.90
39095;DHT22;24840;47.508;19.376;2023-03-01T09:03:26;9.50;88.60
39095;DHT22;24840;47.508;19.376;2023-03-01T09:05:53;10.10;88.80
39095;DHT22;24840;47.508;19.376;2023-03-01T09:08:19;10.60;80.20
39095;DHT22;24840;47.508;19.376;2023-03-01T09:10:45;10.60;86.90
39095;DHT22;24840;47.508;19.376;2023-03-01T09:13:11;10.50;82.80
39095;DHT22;24840;47.508;19.376;2023-03-01T09:15:38;10.60;85.40
39095;DHT22;24840;47.508;19.376;2023-03-01T09:18:04;10.10;84.10
39095;DHT22;24840;47.508;19.376;2023-03-01T09:20:31;9.90;85.20
39095;DHT22;24840;47.508;19.376;2023-03-01T09:22:57;9.90;85.50
39095;DHT22;24840;47.508;19.376;2023-03-01T09:25:23;10.20;85.60
39095;DHT22;24840;47.508;19.376;2023-03-01T09:27:53;10.90;87.00
39095;DHT22;24840;47.508;19.376;2023-03-01T09:30:19;12.20;83.70
39095;DHT22;24840;47.508;19.376;2023-03-01T09:32:45;11.80;77.60
39095;DHT22;24840;47.508;19.376;2023-03-01T09:35:11;12.10;79.70
39095;DHT22;24840;47.508;19.376;2023-03-01T09:37:38;12.70;74.60
39095;DHT22;24840;47.508;19.376;2023-03-01T09:40:06;13.00;75.30
39095;DHT22;24840;47.508;19.376;2023-03-01T09:42:34;13.00;72.70
39095;DHT22;24840;47.508;19.376;2023-03-01T09:47:35;12.90;71.60
39095;DHT22;24840;47.508;19.376;2023-03-01T09:50:20;12.80;72.50
39095;DHT22;24840;47.508;19.376;2023-03-01T10:00:51;13.60;75.10
39095;DHT22;24840;47.508;19.376;2023-03-01T10:03:26;13.40;72.40
39095;DHT22;24840;47.508;19.376;2023-03-01T10:06:11;13.20;71.00
39095;DHT22;24840;47.508;19.376;2023-03-01T10:11:30;14.40;76.30
39095;DHT22;24840;47.508;19.376;2023-03-01T10:16:55;15.40;69.00
39095;DHT22;24840;47.508;19.376;2023-03-01T10:19:25;14.40;68.90
39095;DHT22;24840;47.508;19.376;2023-03-01T10:21:53;14.60;70.90
39095;DHT22;24840;47.508;19.376;2023-03-01T10:24:20;14.80;68.60
39095;DHT22;24840;47.508;19.376;2023-03-01T10:26:54;14.20;65.20
39095;DHT22;24840;47.508;19.376;2023-03-01T10:29:25;14.70;71.40
39095;DHT22;24840;47.508;19.376;2023-03-01T10:31:53;15.60;67.50
39095;DHT22;24840;47.508;19.376;2023-03-01T10:34:29;15.10;67.70
39095;DHT22;24840;47.508;19.376;2023-03-01T10:36:58;15.20;67.40
39095;DHT22;24840;47.508;19.376;2023-03-01T10:39:26;16.00;66.00
39095;DHT22;24840;47.508;19.376;2023-03-01T10:41:56;16.50;66.20
39095;DHT22;24840;47.508;19.376;2023-03-01T10:44:41;16.30;63.20
39095;DHT22;24840;47.508;19.376;2023-03-01T10:47:15;15.20;66.10
39095;DHT22;24840;47.508;19.376;2023-03-01T10:50:03;15.50;63.50
39095;DHT22;24840;47.508;19.376;2023-03-01T10:52:37;15.40;65.00
39095;DHT22;24840;47.508;19.376;2023-03-01T10:55:26;15.70;64.30
39095;DHT22;24840;47.508;19.376;2023-03-01T10:58:20;15.90;63.80
39095;DHT22;24840;47.508;19.376;2023-03-01T11:00:58;16.00;65.20
39095;DHT22;24840;47.508;19.376;2023-03-01T11:08:37;16.10;63.10
39095;DHT22;24840;47.508;19.376;2023-03-01T11:11:14;15.50;60.10
39095;DHT22;24840;47.508;19.376;2023-03-01T11:16:30;15.80;63.70
39095;DHT22;24840;47.508;19.376;2023-03-01T11:19:19;16.50;65.00
39095;DHT22;24840;47.508;19.376;2023-03-01T11:24:16;17.80;58.70
39095;DHT22;24840;47.508;19.376;2023-03-01T11:26:47;17.30;59.80
39095;DHT22;24840;47.508;19.376;2023-03-01T11:29:35;16.40;62.90
39095;DHT22;24840;47.508;19.376;2023-03-01T11:32:06;16.00;62.10
39095;DHT22;24840;47.508;19.376;2023-03-01T11:34:47;17.10;62.30
39095;DHT22;24840;47.508;19.376;2023-03-01T11:40:31;16.10;65.80
39095;DHT22;24840;47.508;19.376;2023-03-01T11:43:09;17.40;64.60
39095;DHT22;24840;47.508;19.376;2023-03-01T11:45:46;18.40;61.30
39095;DHT22;24840;47.508;19.376;2023-03-01T11:54:23;18.00;58.80
39095;DHT22;24840;47.508;19.376;2023-03-01T11:56:55;18.10;62.20
39095;DHT22;24840;47.508;19.376;2023-03-01T12:17:03;17.70;59.90
39095;DHT22;24840;47.508;19.376;2023-03-01T12:19:15;18.00;61.90
39095;DHT22;24840;47.508;19.376;2023-03-01T12:30:06;17.80;57.40
39095;DHT22;24840;47.508;19.376;2023-03-01T12:32:50;17.80;58.80
39095;DHT22;24840;47.508;19.376;2023-03-01T12:35:50;18.50;58.70
39095;DHT22;24840;47.508;19.376;2023-03-01T12:51:28;18.40;56.90
39095;DHT22;24840;47.508;19.376;2023-03-01T12:53:56;18.20;59.60
39095;DHT22;24840;47.508;19.376;2023-03-01T12:56:25;18.10;58.60
39095;DHT22;24840;47.508;19.376;2023-03-01T13:07:21;18.40;59.00
39095;DHT22;24840;47.508;19.376;2023-03-01T13:12:46;18.40;58.20
39095;DHT22;24840;47.508;19.376;2023-03-01T13:15:51;18.80;58.20
39095;DHT22;24840;47.508;19.376;2023-03-01T13:20:58;18.30;57.80
39095;DHT22;24840;47.508;19.376;2023-03-01T13:23:31;18.80;59.50
39095;DHT22;24840;47.508;19.376;2023-03-01T13:26:13;18.60;58.00
39095;DHT22;24840;47.508;19.376;2023-03-01T13:28:46;18.70;56.60
39095;DHT22;24840;47.508;19.376;2023-03-01T13:33:48;18.10;57.90
39095;DHT22;24840;47.508;19.376;2023-03-01T13:38:59;18.20;60.30
39095;DHT22;24840;47.508;19.376;2023-03-01T13:44:30;18.10;58.40
39095;DHT22;24840;47.508;19.376;2023-03-01T13:49:47;17.30;61.00
39095;DHT22;24840;47.508;19.376;2023-03-01T13:54:59;17.50;59.60
39095;DHT22;24840;47.508;19.376;2023-03-01T13:57:33;17.10;60.10
39095;DHT22;24840;47.508;19.376;2023-03-01T13:59:59;17.10;59.60
39095;DHT22;24840;47.508;19.376;2023-03-01T14:02:25;17.30;59.60
39095;DHT22;24840;47.508;19.376;2023-03-01T14:04:58;17.50;59.60
39095;DHT22;24840;47.508;19.376;2023-03-01T14:07:26;17.90;59.10
39095;DHT22;24840;47.508;19.376;2023-03-01T14:10:03;17.60;59.80
39095;DHT22;24840;47.508;19.376;2023-03-01T14:12:46;17.20;59.70
39095;DHT22;24840;47.508;19.376;2023-03-01T14:15:39;17.60;60.20
39095;DHT22;24840;47.508;19.376;2023-03-01T14:18:25;17.60;58.10
39095;DHT22;24840;47.508;19.376;2023-03-01T14:20:54;17.20;60.10
39095;DHT22;24840;47.508;19.376;2023-03-01T14:23:21;16.60;60.20
39095;DHT22;24840;47.508;19.376;2023-03-01T14:25:50;16.80;60.00
39095;DHT22;24840;47.508;19.376;2023-03-01T14:28:26;16.90;61.30
39095;DHT22;24840;47.508;19.376;2023-03-01T14:30:57;16.60;61.90
39095;DHT22;24840;47.508;19.376;2023-03-01T14:33:34;16.70;60.80
39095;DHT22;24840;47.508;19.376;2023-03-01T14:41:03;16.70;61.50
39095;DHT22;24840;47.508;19.376;2023-03-01T14:43:30;16.20;59.70
39095;DHT22;24840;47.508;19.376;2023-03-01T14:45:57;15.80;60.30
39095;DHT22;24840;47.508;19.376;2023-03-01T14:48:23;16.20;62.80
39095;DHT22;24840;47.508;19.376;2023-03-01T14:50:50;16.70;61.60
39095;DHT22;24840;47.508;19.376;2023-03-01T14:53:20;16.20;61.90
39095;DHT22;24840;47.508;19.376;2023-03-01T14:55:50;16.30;62.20
39095;DHT22;24840;47.508;19.376;2023-03-01T14:58:20;15.80;61.50
39095;DHT22;24840;47.508;19.376;2023-03-01T15:00:53;15.90;62.90
39095;DHT22;24840;47.508;19.376;2023-03-01T15:03:31;16.10;62.30
39095;DHT22;24840;47.508;19.376;2023-03-01T15:06:00;15.70;63.30
39095;DHT22;24840;47.508;19.376;2023-03-01T15:08:27;15.90;62.70
39095;DHT22;24840;47.508;19.376;2023-03-01T15:11:05;15.50;62.10
39095;DHT22;24840;47.508;19.376;2023-03-01T15:13:41;15.50;63.00
39095;DHT22;24840;47.508;19.376;2023-03-01T15:18:34;15.10;63.60
39095;DHT22;24840;47.508;19.376;2023-03-01T15:21:31;14.80;64.00
39095;DHT22;24840;47.508;19.376;2023-03-01T15:24:06;14.20;66.50
39095;DHT22;24840;47.508;19.376;2023-03-01T15:26:55;14.40;65.60
39095;DHT22;24840;47.508;19.376;2023-03-01T15:29:30;14.30;66.60
39095;DHT22;24840;47.508;19.376;2023-03-01T15:32:05;14.20;66.10
39095;DHT22;24840;47.508;19.376;2023-03-01T15:34:37;14.10;65.80
39095;DHT22;24840;47.508;19.376;2023-03-01T15:37:34;13.90;67.30
39095;DHT22;24840;47.508;19.376;2023-03-01T15:39:57;13.60;67.90
39095;DHT22;24840;47.508;19.376;2023-03-01T15:47:36;13.10;68.10
39095;DHT22;24840;47.508;19.376;2023-03-01T15:50:04;12.80;68.90
39095;DHT22;24840;47.508;19.376;2023-03-01T15:52:40;12.70;71.30
39095;DHT22;24840;47.508;19.376;2023-03-01T15:55:16;12.30;71.40
39095;DHT22;24840;47.508;19.376;2023-03-01T15:57:42;12.30;72.10
39095;DHT22;24840;47.508;19.376;2023-03-01T16:00:11;12.40;71.70
39095;DHT22;24840;47.508;19.376;2023-03-01T16:02:39;12.10;72.20
39095;DHT22;24840;47.508;19.376;2023-03-01T16:05:17;12.10;73.10
39095;DHT22;24840;47.508;19.376;2023-03-01T16:07:47;11.60;74.00
39095;DHT22;24840;47.508;19.376;2023-03-01T16:10:12;11.40;75.10
39095;DHT22;24840;47.508;19.376;2023-03-01T16:12:38;11.10;75.70
39095;DHT22;24840;47.508;19.376;2023-03-01T16:15:10;10.80;77.40
39095;DHT22;24840;47.508;19.376;2023-03-01T16:17:38;10.70;77.10
39095;DHT22;24840;47.508;19.376;2023-03-01T16:20:04;10.50;78.20
39095;DHT22;24840;47.508;19.376;2023-03-01T16:22:30;10.70;78.30
39095;DHT22;24840;47.508;19.376;2023-03-01T16:24:55;10.30;77.80
39095;DHT22;24840;47.508;19.376;2023-03-01T16:27:21;10.10;79.00
39095;DHT22;24840;47.508;19.376;2023-03-01T16:29:47;10.20;78.20
39095;DHT22;24840;47.508;19.376;2023-03-01T16:32:13;10.00;77.70
39095;DHT22;24840;47.508;19.376;2023-03-01T16:34:39;9.80;78.10
39095;DHT22;24840;47.508;19.376;2023-03-01T16:37:05;9.50;79.10
39095;DHT22;24840;47.508;19.376;2023-03-01T16:39:30;9.60;78.70
39095;DHT22;24840;47.508;19.376;2023-03-01T16:41:56;9.50;78.10
39095;DHT22;24840;47.508;19.376;2023-03-01T16:44:25;9.20;80.20
39095;DHT22;24840;47.508;19.376;2023-03-01T16:46:50;8.90;81.20
39095;DHT22;24840;47.508;19.376;2023-03-01T16:49:16;8.70;81.40
39095;DHT22;24840;47.508;19.376;2023-03-01T16:51:42;8.70;81.40
39095;DHT22;24840;47.508;19.376;2023-03-01T16:54:10;8.20;84.00
39095;DHT22;24840;47.508;19.376;2023-03-01T16:56:36;8.30;82.70
39095;DHT22;24840;47.508;19.376;2023-03-01T16:59:04;8.00;83.60
39095;DHT22;24840;47.508;19.376;2023-03-01T17:01:30;7.70;84.30
39095;DHT22;24840;47.508;19.376;2023-03-01T17:04:03;7.80;84.60
39095;DHT22;24840;47.508;19.376;2023-03-01T17:06:29;7.80;83.60
39095;DHT22;24840;47.508;19.376;2023-03-01T17:08:56;7.30;84.30
39095;DHT22;24840;47.508;19.376;2023-03-01T17:11:22;7.40;85.30
39095;DHT22;24840;47.508;19.376;2023-03-01T17:13:47;7.10;85.20
39095;DHT22;24840;47.508;19.376;2023-03-01T17:16:15;6.80;86.70
39095;DHT22;24840;47.508;19.376;2023-03-01T17:18:42;7.00;86.20
39095;DHT22;24840;47.508;19.376;2023-03-01T17:21:08;6.50;87.60
39095;DHT22;24840;47.508;19.376;2023-03-01T17:23:38;6.20;88.90
39095;DHT22;24840;47.508;19.376;2023-03-01T17:26:04;6.10;89.70
39095;DHT22;24840;47.508;19.376;2023-03-01T17:28:31;6.00;89.90
39095;DHT22;24840;47.508;19.376;2023-03-01T17:30:59;5.80;90.20
39095;DHT22;24840;47.508;19.376;2023-03-01T17:33:26;5.70;90.40
39095;DHT22;24840;47.508;19.376;2023-03-01T17:35:52;5.50;90.40
39095;DHT22;24840;47.508;19.376;2023-03-01T17:38:17;5.30;91.40
39095;DHT22;24840;47.508;19.376;2023-03-01T17:40:44;5.50;90.90
39095;DHT22;24840;47.508;19.376;2023-03-01T17:43:11;5.50;90.70
39095;DHT22;24840;47.508;19.376;2023-03-01T17:45:38;5.20;91.10
39095;DHT22;24840;47.508;19.376;2023-03-01T17:48:05;5.20;91.60
39095;DHT22;24840;47.508;19.376;2023-03-01T17:50:32;5.20;91.30